sensor_id;sensor_type;location;lat;lon;timestamp;temperature;humidity
71188;DHT22;58893;53.130;8.158;2022-11-14T00:00:29;11.40;77.90
71188;DHT22;58893;53.130;8.158;2022-11-14T00:02:58;11.40;77.90
71188;DHT22;58893;53.130;8.158;2022-11-14T00:05:23;11.40;77.90
71188;DHT22;58893;53.130;8.158;2022-11-14T00:07:49;11.40;77.80
71188;DHT22;58893;53.130;8.158;2022-11-14T00:10:15;11.40;77.80
71188;DHT22;58893;53.130;8.158;2022-11-14T00:12:41;11.50;77.90
71188;DHT22;58893;53.130;8.158;2022-11-14T00:15:08;11.50;77.80
71188;DHT22;58893;53.130;8.158;2022-11-14T00:17:34;11.40;77.70
71188;DHT22;58893;53.130;8.158;2022-11-14T00:19:59;11.50;77.80
71188;DHT22;58893;53.130;8.158;2022-11-14T00:22:25;11.40;77.70
71188;DHT22;58893;53.130;8.158;2022-11-14T00:24:50;11.40;77.70
71188;DHT22;58893;53.130;8.158;2022-11-14T00:27:16;11.50;77.80
71188;DHT22;58893;53.130;8.158;2022-11-14T00:29:42;11.50;77.80
71188;DHT22;58893;53.130;8.158;2022-11-14T00:32:07;11.50;77.80
71188;DHT22;58893;53.130;8.158;2022-11-14T00:34:33;11.40;77.70
71188;DHT22;58893;53.130;8.158;2022-11-14T00:36:59;11.50;77.80
71188;DHT22;58893;53.130;8.158;2022-11-14T00:39:25;11.40;77.70
71188;DHT22;58893;53.130;8.158;2022-11-14T00:41:50;11.50;77.70
71188;DHT22;58893;53.130;8.158;2022-11-14T00:44:16;11.40;77.60
71188;DHT22;58893;53.130;8.158;2022-11-14T00:46:41;11.40;77.40
71188;DHT22;58893;53.130;8.158;2022-11-14T00:49:07;11.40;77.40
71188;DHT22;58893;53.130;8.158;2022-11-14T00:51:33;11.40;77.30
71188;DHT22;58893;53.130;8.158;2022-11-14T00:53:59;11.40;78.00
71188;DHT22;58893;53.130;8.158;2022-11-14T00:56:24;11.40;77.40
71188;DHT22;58893;53.130;8.158;2022-11-14T00:58:50;11.40;77.40
71188;DHT22;58893;53.130;8.158;2022-11-14T01:01:15;11.30;77.20
71188;DHT22;58893;53.130;8.158;2022-11-14T01:03:41;11.30;77.30
71188;DHT22;58893;53.130;8.158;2022-11-14T01:06:10;11.30;77.30
71188;DHT22;58893;53.130;8.158;2022-11-14T01:08:36;11.30;77.40
71188;DHT22;58893;53.130;8.158;2022-11-14T01:11:09;11.30;77.40
71188;DHT22;58893;53.130;8.158;2022-11-14T01:13:35;11.30;77.40
71188;DHT22;58893;53.130;8.158;2022-11-14T01:16:00;11.30;77.50
71188;DHT22;58893;53.130;8.158;2022-11-14T01:18:26;11.30;78.10
71188;DHT22;58893;53.130;8.158;2022-11-14T01:20:52;11.20;77.30
71188;DHT22;58893;53.130;8.158;2022-11-14T01:23:18;11.20;77.20
71188;DHT22;58893;53.130;8.158;2022-11-14T01:25:44;11.20;77.30
71188;DHT22;58893;53.130;8.158;2022-11-14T01:28:13;11.20;77.40
71188;DHT22;58893;53.130;8.158;2022-11-14T01:30:39;11.20;77.30
71188;DHT22;58893;53.130;8.158;2022-11-14T01:33:05;11.20;77.30
71188;DHT22;58893;53.130;8.158;2022-11-14T01:35:32;11.20;77.20
71188;DHT22;58893;53.130;8.158;2022-11-14T01:37:59;11.10;77.10
71188;DHT22;58893;53.130;8.158;2022-11-14T01:40:25;11.10;77.10
71188;DHT22;58893;53.130;8.158;2022-11-14T01:53:37;11.00;76.80
71188;DHT22;58893;53.130;8.158;2022-11-14T01:56:05;11.00;76.80
71188;DHT22;58893;53.130;8.158;2022-11-14T01:58:34;11.00;76.70
71188;DHT22;58893;53.130;8.158;2022-11-14T02:01:01;11.00;76.80
71188;DHT22;58893;53.130;8.158;2022-11-14T02:03:28;10.90;76.70
71188;DHT22;58893;53.130;8.158;2022-11-14T02:05:54;10.90;76.80
71188;DHT22;58893;53.130;8.158;2022-11-14T02:08:21;10.90;77.40
71188;DHT22;58893;53.130;8.158;2022-11-14T02:10:47;10.90;76.70
71188;DHT22;58893;53.130;8.158;2022-11-14T02:13:13;10.90;76.70
71188;DHT22;58893;53.130;8.158;2022-11-14T02:15:39;10.90;76.70
71188;DHT22;58893;53.130;8.158;2022-11-14T02:18:05;10.90;76.50
71188;DHT22;58893;53.130;8.158;2022-11-14T02:20:36;10.90;76.40
71188;DHT22;58893;53.130;8.158;2022-11-14T02:23:02;10.90;76.40
71188;DHT22;58893;53.130;8.158;2022-11-14T02:25:28;10.90;76.40
71188;DHT22;58893;53.130;8.158;2022-11-14T02:27:55;10.90;76.40
71188;DHT22;58893;53.130;8.158;2022-11-14T02:30:21;10.90;76.40
71188;DHT22;58893;53.130;8.158;2022-11-14T02:32:47;10.90;76.40
71188;DHT22;58893;53.130;8.158;2022-11-14T02:35:13;10.90;76.30
71188;DHT22;58893;53.130;8.158;2022-11-14T02:37:39;10.90;76.10
71188;DHT22;58893;53.130;8.158;2022-11-14T02:40:05;10.90;76.10
71188;DHT22;58893;53.130;8.158;2022-11-14T02:42:31;10.90;76.10
71188;DHT22;58893;53.130;8.158;2022-11-14T02:44:57;10.90;76.10
71188;DHT22;58893;53.130;8.158;2022-11-14T02:47:23;10.90;75.90
71188;DHT22;58893;53.130;8.158;2022-11-14T02:49:49;10.90;75.90
71188;DHT22;58893;53.130;8.158;2022-11-14T02:52:16;10.90;75.70
71188;DHT22;58893;53.130;8.158;2022-11-14T02:54:41;10.90;75.40
71188;DHT22;58893;53.130;8.158;2022-11-14T02:57:07;10.90;75.90
71188;DHT22;58893;53.130;8.158;2022-11-14T02:59:32;10.90;75.20
71188;DHT22;58893;53.130;8.158;2022-11-14T03:01:58;10.90;74.90
71188;DHT22;58893;53.130;8.158;2022-11-14T03:04:24;10.80;74.90
71188;DHT22;58893;53.130;8.158;2022-11-14T03:06:49;10.80;74.90
71188;DHT22;58893;53.130;8.158;2022-11-14T03:09:15;10.80;75.00
71188;DHT22;58893;53.130;8.158;2022-11-14T03:11:42;10.80;75.00
71188;DHT22;58893;53.130;8.158;2022-11-14T03:14:08;10.70;74.90
71188;DHT22;58893;53.130;8.158;2022-11-14T03:16:34;10.70;75.00
71188;DHT22;58893;53.130;8.158;2022-11-14T03:18:59;10.70;75.20
71188;DHT22;58893;53.130;8.158;2022-11-14T03:21:25;10.70;75.20
71188;DHT22;58893;53.130;8.158;2022-11-14T03:23:51;10.70;75.30
71188;DHT22;58893;53.130;8.158;2022-11-14T03:26:17;10.70;75.20
71188;DHT22;58893;53.130;8.158;2022-11-14T03:28:43;10.60;75.00
71188;DHT22;58893;53.130;8.158;2022-11-14T03:31:11;10.60;75.00
71188;DHT22;58893;53.130;8.158;2022-11-14T03:33:38;10.60;74.90
71188;DHT22;58893;53.130;8.158;2022-11-14T03:36:05;10.60;74.80
71188;DHT22;58893;53.130;8.158;2022-11-14T03:38:31;10.60;75.00
71188;DHT22;58893;53.130;8.158;2022-11-14T03:40:57;10.60;75.00
71188;DHT22;58893;53.130;8.158;2022-11-14T03:43:24;10.60;74.90
71188;DHT22;58893;53.130;8.158;2022-11-14T03:45:50;10.60;74.90
71188;DHT22;58893;53.130;8.158;2022-11-14T03:48:16;10.50;74.70
71188;DHT22;58893;53.130;8.158;2022-11-14T03:50:42;10.50;74.60
71188;DHT22;58893;53.130;8.158;2022-11-14T03:53:08;10.50;74.70
71188;DHT22;58893;53.130;8.158;2022-11-14T03:55:34;10.50;74.60
71188;DHT22;58893;53.130;8.158;2022-11-14T03:58:00;10.50;74.60
71188;DHT22;58893;53.130;8.158;2022-11-14T04:00:25;10.40;74.40
71188;DHT22;58893;53.130;8.158;2022-11-14T04:02:55;10.40;74.40
71188;DHT22;58893;53.130;8.158;2022-11-14T04:05:22;10.40;74.40
71188;DHT22;58893;53.130;8.158;2022-11-14T04:07:47;10.40;74.50
71188;DHT22;58893;53.130;8.158;2022-11-14T04:10:13;10.40;74.50
71188;DHT22;58893;53.130;8.158;2022-11-14T04:12:38;10.40;74.50
71188;DHT22;58893;53.130;8.158;2022-11-14T04:15:04;10.40;74.60
71188;DHT22;58893;53.130;8.158;2022-11-14T04:17:30;10.40;74.70
71188;DHT22;58893;53.130;8.158;2022-11-14T04:19:56;10.40;74.70
71188;DHT22;58893;53.130;8.158;2022-11-14T04:22:21;10.40;74.70
71188;DHT22;58893;53.130;8.158;2022-11-14T04:24:47;10.40;74.70
71188;DHT22;58893;53.130;8.158;2022-11-14T04:27:13;10.40;74.70
71188;DHT22;58893;53.130;8.158;2022-11-14T04:29:38;10.40;74.70
71188;DHT22;58893;53.130;8.158;2022-11-14T04:32:04;10.40;74.70
71188;DHT22;58893;53.130;8.158;2022-11-14T04:34:29;10.40;74.60
71188;DHT22;58893;53.130;8.158;2022-11-14T04:36:55;10.40;74.60
71188;DHT22;58893;53.130;8.158;2022-11-14T04:39:21;10.50;74.60
71188;DHT22;58893;53.130;8.158;2022-11-14T04:41:46;10.50;74.60
71188;DHT22;58893;53.130;8.158;2022-11-14T04:44:12;10.50;74.50
71188;DHT22;58893;53.130;8.158;2022-11-14T04:46:37;10.50;74.50
71188;DHT22;58893;53.130;8.158;2022-11-14T04:49:03;10.40;74.30
71188;DHT22;58893;53.130;8.158;2022-11-14T04:51:29;10.50;74.30
71188;DHT22;58893;53.130;8.158;2022-11-14T04:53:54;10.40;74.20
71188;DHT22;58893;53.130;8.158;2022-11-14T04:56:20;10.40;74.00
71188;DHT22;58893;53.130;8.158;2022-11-14T04:58:48;10.40;73.70
71188;DHT22;58893;53.130;8.158;2022-11-14T05:01:15;10.40;73.60
71188;DHT22;58893;53.130;8.158;2022-11-14T05:03:41;10.40;73.50
71188;DHT22;58893;53.130;8.158;2022-11-14T05:06:07;10.40;73.70
71188;DHT22;58893;53.130;8.158;2022-11-14T05:08:33;10.40;73.80
71188;DHT22;58893;53.130;8.158;2022-11-14T05:10:58;10.40;73.80
71188;DHT22;58893;53.130;8.158;2022-11-14T05:13:24;10.40;73.80
71188;DHT22;58893;53.130;8.158;2022-11-14T05:15:50;10.40;73.80
71188;DHT22;58893;53.130;8.158;2022-11-14T05:18:16;10.40;73.80
71188;DHT22;58893;53.130;8.158;2022-11-14T05:20:41;10.40;73.90
71188;DHT22;58893;53.130;8.158;2022-11-14T05:23:17;10.40;73.90
71188;DHT22;58893;53.130;8.158;2022-11-14T05:25:43;10.40;73.80
71188;DHT22;58893;53.130;8.158;2022-11-14T05:28:09;10.40;73.90
71188;DHT22;58893;53.130;8.158;2022-11-14T05:30:34;10.40;73.90
71188;DHT22;58893;53.130;8.158;2022-11-14T05:33:00;10.40;73.80
71188;DHT22;58893;53.130;8.158;2022-11-14T05:35:26;10.40;73.70
71188;DHT22;58893;53.130;8.158;2022-11-14T05:37:51;10.40;73.80
71188;DHT22;58893;53.130;8.158;2022-11-14T05:40:17;10.40;73.70
71188;DHT22;58893;53.130;8.158;2022-11-14T05:42:43;10.40;73.90
71188;DHT22;58893;53.130;8.158;2022-11-14T05:45:09;10.40;73.90
71188;DHT22;58893;53.130;8.158;2022-11-14T05:47:35;10.40;73.90
71188;DHT22;58893;53.130;8.158;2022-11-14T05:50:01;10.40;78.00
71188;DHT22;58893;53.130;8.158;2022-11-14T05:52:27;10.30;73.90
71188;DHT22;58893;53.130;8.158;2022-11-14T05:54:52;10.30;73.90
71188;DHT22;58893;53.130;8.158;2022-11-14T05:57:18;10.30;73.90
71188;DHT22;58893;53.130;8.158;2022-11-14T05:59:43;10.30;73.80
71188;DHT22;58893;53.130;8.158;2022-11-14T06:02:09;10.30;73.80
71188;DHT22;58893;53.130;8.158;2022-11-14T06:04:35;10.30;73.70
71188;DHT22;58893;53.130;8.158;2022-11-14T06:07:00;10.30;73.90
71188;DHT22;58893;53.130;8.158;2022-11-14T06:09:26;10.30;74.00
71188;DHT22;58893;53.130;8.158;2022-11-14T06:11:51;10.30;74.60
71188;DHT22;58893;53.130;8.158;2022-11-14T06:14:17;10.30;74.00
71188;DHT22;58893;53.130;8.158;2022-11-14T06:16:43;10.30;73.90
71188;DHT22;58893;53.130;8.158;2022-11-14T06:19:08;10.30;73.90
71188;DHT22;58893;53.130;8.158;2022-11-14T06:21:34;10.30;73.80
71188;DHT22;58893;53.130;8.158;2022-11-14T06:23:59;10.30;73.80
71188;DHT22;58893;53.130;8.158;2022-11-14T06:26:29;10.30;73.90
71188;DHT22;58893;53.130;8.158;2022-11-14T06:28:55;10.30;73.90
71188;DHT22;58893;53.130;8.158;2022-11-14T06:31:21;10.30;73.90
71188;DHT22;58893;53.130;8.158;2022-11-14T06:33:48;10.30;74.00
71188;DHT22;58893;53.130;8.158;2022-11-14T06:36:14;10.30;74.10
71188;DHT22;58893;53.130;8.158;2022-11-14T06:38:40;10.30;74.20
71188;DHT22;58893;53.130;8.158;2022-11-14T06:41:19;10.30;74.20
71188;DHT22;58893;53.130;8.158;2022-11-14T06:43:48;10.30;74.30
71188;DHT22;58893;53.130;8.158;2022-11-14T06:46:17;10.30;74.20
71188;DHT22;58893;53.130;8.158;2022-11-14T06:48:44;10.30;74.20
71188;DHT22;58893;53.130;8.158;2022-11-14T06:51:11;10.30;74.10
71188;DHT22;58893;53.130;8.158;2022-11-14T06:53:37;10.30;74.20
71188;DHT22;58893;53.130;8.158;2022-11-14T06:56:08;10.30;74.20
71188;DHT22;58893;53.130;8.158;2022-11-14T06:58:36;10.30;74.10
71188;DHT22;58893;53.130;8.158;2022-11-14T07:01:17;10.30;74.20
71188;DHT22;58893;53.130;8.158;2022-11-14T07:03:43;10.30;74.20
71188;DHT22;58893;53.130;8.158;2022-11-14T07:06:11;10.30;74.10
71188;DHT22;58893;53.130;8.158;2022-11-14T07:08:37;10.20;73.90
71188;DHT22;58893;53.130;8.158;2022-11-14T07:11:04;10.20;73.90
71188;DHT22;58893;53.130;8.158;2022-11-14T07:13:30;10.20;74.10
71188;DHT22;58893;53.130;8.158;2022-11-14T07:15:56;10.20;74.10
71188;DHT22;58893;53.130;8.158;2022-11-14T07:18:22;10.20;74.10
71188;DHT22;58893;53.130;8.158;2022-11-14T07:20:48;10.20;74.00
71188;DHT22;58893;53.130;8.158;2022-11-14T07:23:14;10.20;74.10
71188;DHT22;58893;53.130;8.158;2022-11-14T07:25:40;10.20;74.10
71188;DHT22;58893;53.130;8.158;2022-11-14T07:28:06;10.20;74.00
71188;DHT22;58893;53.130;8.158;2022-11-14T07:30:32;10.20;74.00
71188;DHT22;58893;53.130;8.158;2022-11-14T07:32:58;10.20;73.90
71188;DHT22;58893;53.130;8.158;2022-11-14T07:35:24;10.20;74.00
71188;DHT22;58893;53.130;8.158;2022-11-14T07:37:50;10.10;74.00
71188;DHT22;58893;53.130;8.158;2022-11-14T07:40:16;10.10;74.10
71188;DHT22;58893;53.130;8.158;2022-11-14T07:42:42;10.10;74.30
71188;DHT22;58893;53.130;8.158;2022-11-14T07:45:09;10.10;74.20
71188;DHT22;58893;53.130;8.158;2022-11-14T07:47:35;10.20;74.40
71188;DHT22;58893;53.130;8.158;2022-11-14T07:50:00;10.10;74.20
71188;DHT22;58893;53.130;8.158;2022-11-14T07:52:26;10.10;73.90
71188;DHT22;58893;53.130;8.158;2022-11-14T07:54:52;10.10;74.10
71188;DHT22;58893;53.130;8.158;2022-11-14T07:57:17;10.20;74.30
71188;DHT22;58893;53.130;8.158;2022-11-14T07:59:43;10.10;74.30
71188;DHT22;58893;53.130;8.158;2022-11-14T08:02:11;10.10;74.40
71188;DHT22;58893;53.130;8.158;2022-11-14T08:04:38;10.10;74.60
71188;DHT22;58893;53.130;8.158;2022-11-14T08:07:04;10.10;74.60
71188;DHT22;58893;53.130;8.158;2022-11-14T08:09:30;10.20;74.60
71188;DHT22;58893;53.130;8.158;2022-11-14T08:11:55;10.20;74.60
71188;DHT22;58893;53.130;8.158;2022-11-14T08:14:21;10.20;74.60
71188;DHT22;58893;53.130;8.158;2022-11-14T08:16:46;10.20;74.50
71188;DHT22;58893;53.130;8.158;2022-11-14T08:19:12;10.20;74.60
71188;DHT22;58893;53.130;8.158;2022-11-14T08:21:38;10.20;74.60
71188;DHT22;58893;53.130;8.158;2022-11-14T08:24:04;10.20;74.50
71188;DHT22;58893;53.130;8.158;2022-11-14T08:26:29;10.20;74.40
71188;DHT22;58893;53.130;8.158;2022-11-14T08:28:55;10.20;74.60
71188;DHT22;58893;53.130;8.158;2022-11-14T08:31:21;10.20;74.60
71188;DHT22;58893;53.130;8.158;2022-11-14T08:33:47;10.20;74.50
71188;DHT22;58893;53.130;8.158;2022-11-14T08:36:14;10.30;74.60
71188;DHT22;58893;53.130;8.158;2022-11-14T08:38:40;10.30;74.60
71188;DHT22;58893;53.130;8.158;2022-11-14T08:41:06;10.30;74.60
71188;DHT22;58893;53.130;8.158;2022-11-14T08:43:31;10.30;74.50
71188;DHT22;58893;53.130;8.158;2022-11-14T08:46:03;10.30;74.60
71188;DHT22;58893;53.130;8.158;2022-11-14T08:48:30;10.30;74.60
71188;DHT22;58893;53.130;8.158;2022-11-14T08:50:56;10.30;74.50
71188;DHT22;58893;53.130;8.158;2022-11-14T08:53:22;10.30;74.60
71188;DHT22;58893;53.130;8.158;2022-11-14T08:55:48;10.40;75.20
71188;DHT22;58893;53.130;8.158;2022-11-14T08:58:14;10.40;74.50
71188;DHT22;58893;53.130;8.158;2022-11-14T09:00:40;10.40;74.50
71188;DHT22;58893;53.130;8.158;2022-11-14T09:03:10;10.40;74.50
71188;DHT22;58893;53.130;8.158;2022-11-14T09:05:41;10.40;74.50
71188;DHT22;58893;53.130;8.158;2022-11-14T09:08:06;10.40;74.60
71188;DHT22;58893;53.130;8.158;2022-11-14T09:10:33;10.40;74.60
71188;DHT22;58893;53.130;8.158;2022-11-14T09:13:00;10.40;74.60
71188;DHT22;58893;53.130;8.158;2022-11-14T09:15:26;10.40;74.40
71188;DHT22;58893;53.130;8.158;2022-11-14T09:17:56;10.40;74.40
71188;DHT22;58893;53.130;8.158;2022-11-14T09:20:23;10.40;74.50
71188;DHT22;58893;53.130;8.158;2022-11-14T09:22:48;10.40;74.50
71188;DHT22;58893;53.130;8.158;2022-11-14T09:25:16;10.40;74.30
71188;DHT22;58893;53.130;8.158;2022-11-14T09:27:42;10.40;74.40
71188;DHT22;58893;53.130;8.158;2022-11-14T09:30:08;10.40;74.40
71188;DHT22;58893;53.130;8.158;2022-11-14T09:32:34;10.40;74.40
71188;DHT22;58893;53.130;8.158;2022-11-14T09:35:00;10.40;74.40
71188;DHT22;58893;53.130;8.158;2022-11-14T09:37:25;10.40;74.30
71188;DHT22;58893;53.130;8.158;2022-11-14T09:39:51;10.40;74.60
71188;DHT22;58893;53.130;8.158;2022-11-14T09:45:03;10.50;74.60
71188;DHT22;58893;53.130;8.158;2022-11-14T09:47:36;10.50;74.50
71188;DHT22;58893;53.130;8.158;2022-11-14T09:50:23;10.60;74.50
71188;DHT22;58893;53.130;8.158;2022-11-14T09:52:55;10.60;74.20
71188;DHT22;58893;53.130;8.158;2022-11-14T09:55:27;10.60;74.10
71188;DHT22;58893;53.130;8.158;2022-11-14T09:57:53;10.70;74.10
71188;DHT22;58893;53.130;8.158;2022-11-14T10:00:25;10.70;74.10
71188;DHT22;58893;53.130;8.158;2022-11-14T10:03:02;10.70;74.10
71188;DHT22;58893;53.130;8.158;2022-11-14T10:11:17;10.80;74.00
71188;DHT22;58893;53.130;8.158;2022-11-14T10:13:49;10.80;73.90
71188;DHT22;58893;53.130;8.158;2022-11-14T10:19:25;10.80;73.60
71188;DHT22;58893;53.130;8.158;2022-11-14T10:22:10;10.80;73.50
71188;DHT22;58893;53.130;8.158;2022-11-14T10:25:14;10.80;73.30
71188;DHT22;58893;53.130;8.158;2022-11-14T10:30:22;10.80;73.50
71188;DHT22;58893;53.130;8.158;2022-11-14T10:35:44;10.80;73.40
71188;DHT22;58893;53.130;8.158;2022-11-14T10:38:22;10.80;73.50
71188;DHT22;58893;53.130;8.158;2022-11-14T10:40:53;10.80;73.70
71188;DHT22;58893;53.130;8.158;2022-11-14T10:48:48;10.80;73.30
71188;DHT22;58893;53.130;8.158;2022-11-14T10:54:14;10.80;73.20
71188;DHT22;58893;53.130;8.158;2022-11-14T10:56:50;10.80;73.20
71188;DHT22;58893;53.130;8.158;2022-11-14T10:59:16;10.80;73.30
71188;DHT22;58893;53.130;8.158;2022-11-14T11:04:23;10.80;73.30
71188;DHT22;58893;53.130;8.158;2022-11-14T11:06:52;10.80;73.40
71188;DHT22;58893;53.130;8.158;2022-11-14T11:09:23;10.80;73.30
71188;DHT22;58893;53.130;8.158;2022-11-14T11:12:13;10.90;73.60
71188;DHT22;58893;53.130;8.158;2022-11-14T11:14:40;10.90;73.50
71188;DHT22;58893;53.130;8.158;2022-11-14T11:17:16;10.90;73.40
71188;DHT22;58893;53.130;8.158;2022-11-14T11:19:44;10.90;73.40
71188;DHT22;58893;53.130;8.158;2022-11-14T11:24:54;10.90;73.00
71188;DHT22;58893;53.130;8.158;2022-11-14T11:27:26;10.90;72.80
71188;DHT22;58893;53.130;8.158;2022-11-14T11:32:27;10.90;72.60
71188;DHT22;58893;53.130;8.158;2022-11-14T11:34:54;10.90;72.50
71188;DHT22;58893;53.130;8.158;2022-11-14T11:37:26;10.90;72.50
71188;DHT22;58893;53.130;8.158;2022-11-14T11:40:01;10.90;72.50
71188;DHT22;58893;53.130;8.158;2022-11-14T11:45:23;10.90;72.60
71188;DHT22;58893;53.130;8.158;2022-11-14T11:47:57;10.90;72.70
71188;DHT22;58893;53.130;8.158;2022-11-14T11:50:25;10.90;72.60
71188;DHT22;58893;53.130;8.158;2022-11-14T11:53:04;10.90;72.30
71188;DHT22;58893;53.130;8.158;2022-11-14T11:55:32;10.90;72.40
71188;DHT22;58893;53.130;8.158;2022-11-14T11:58:04;10.90;72.60
71188;DHT22;58893;53.130;8.158;2022-11-14T12:00:31;10.90;72.60
71188;DHT22;58893;53.130;8.158;2022-11-14T12:02:58;10.90;72.60
71188;DHT22;58893;53.130;8.158;2022-11-14T12:10:53;10.90;72.60
71188;DHT22;58893;53.130;8.158;2022-11-14T12:27:22;11.00;72.50
71188;DHT22;58893;53.130;8.158;2022-11-14T12:32:31;11.00;72.20
71188;DHT22;58893;53.130;8.158;2022-11-14T12:34:59;11.00;72.00
71188;DHT22;58893;53.130;8.158;2022-11-14T12:37:30;11.10;72.10
71188;DHT22;58893;53.130;8.158;2022-11-14T12:39:59;11.10;72.00
71188;DHT22;58893;53.130;8.158;2022-11-14T12:42:26;11.10;72.00
71188;DHT22;58893;53.130;8.158;2022-11-14T12:44:52;11.10;71.90
71188;DHT22;58893;53.130;8.158;2022-11-14T12:47:23;11.10;71.80
71188;DHT22;58893;53.130;8.158;2022-11-14T13:00:19;11.10;71.80
71188;DHT22;58893;53.130;8.158;2022-11-14T13:06:03;11.10;71.70
71188;DHT22;58893;53.130;8.158;2022-11-14T13:11:43;11.10;71.80
71188;DHT22;58893;53.130;8.158;2022-11-14T13:14:29;11.10;71.70
71188;DHT22;58893;53.130;8.158;2022-11-14T13:17:24;11.10;71.70
71188;DHT22;58893;53.130;8.158;2022-11-14T13:20:31;11.10;71.60
71188;DHT22;58893;53.130;8.158;2022-11-14T13:28:55;11.20;71.70
71188;DHT22;58893;53.130;8.158;2022-11-14T13:34:27;11.10;71.50
71188;DHT22;58893;53.130;8.158;2022-11-14T13:42:31;11.10;71.60
71188;DHT22;58893;53.130;8.158;2022-11-14T13:45:17;11.10;71.60
71188;DHT22;58893;53.130;8.158;2022-11-14T13:48:17;11.10;71.60
71188;DHT22;58893;53.130;8.158;2022-11-14T13:50:51;11.10;71.40
71188;DHT22;58893;53.130;8.158;2022-11-14T13:53:22;11.10;71.40
71188;DHT22;58893;53.130;8.158;2022-11-14T14:04:22;11.00;71.50
71188;DHT22;58893;53.130;8.158;2022-11-14T14:09:56;11.00;71.60
71188;DHT22;58893;53.130;8.158;2022-11-14T14:21:05;11.00;71.60
71188;DHT22;58893;53.130;8.158;2022-11-14T14:32:17;11.00;71.80
71188;DHT22;58893;53.130;8.158;2022-11-14T14:34:43;11.00;71.90
71188;DHT22;58893;53.130;8.158;2022-11-14T14:37:19;11.00;71.90
71188;DHT22;58893;53.130;8.158;2022-11-14T14:42:27;11.00;72.00
71188;DHT22;58893;53.130;8.158;2022-11-14T14:44:55;11.00;72.00
71188;DHT22;58893;53.130;8.158;2022-11-14T14:49:54;11.00;72.00
71188;DHT22;58893;53.130;8.158;2022-11-14T14:52:31;11.00;72.00
71188;DHT22;58893;53.130;8.158;2022-11-14T14:54:58;11.00;72.10
71188;DHT22;58893;53.130;8.158;2022-11-14T14:57:28;11.00;72.00
71188;DHT22;58893;53.130;8.158;2022-11-14T15:00:18;11.00;72.10
71188;DHT22;58893;53.130;8.158;2022-11-14T15:02:44;11.00;72.10
71188;DHT22;58893;53.130;8.158;2022-11-14T15:05:10;11.00;72.10
71188;DHT22;58893;53.130;8.158;2022-11-14T15:07:38;11.00;72.20
71188;DHT22;58893;53.130;8.158;2022-11-14T15:10:05;11.00;72.20
71188;DHT22;58893;53.130;8.158;2022-11-14T15:12:34;11.00;72.20
71188;DHT22;58893;53.130;8.158;2022-11-14T15:15:00;11.00;72.20
71188;DHT22;58893;53.130;8.158;2022-11-14T15:17:27;11.00;72.30
71188;DHT22;58893;53.130;8.158;2022-11-14T15:19:53;10.90;73.60
71188;DHT22;58893;53.130;8.158;2022-11-14T15:22:21;10.90;73.30
71188;DHT22;58893;53.130;8.158;2022-11-14T15:27:30;10.90;77.10
71188;DHT22;58893;53.130;8.158;2022-11-14T15:30:00;10.90;73.40
71188;DHT22;58893;53.130;8.158;2022-11-14T15:32:26;10.90;73.10
71188;DHT22;58893;53.130;8.158;2022-11-14T15:35:19;10.80;73.20
71188;DHT22;58893;53.130;8.158;2022-11-14T15:40:35;10.80;73.10
71188;DHT22;58893;53.130;8.158;2022-11-14T15:46:03;10.80;73.20
71188;DHT22;58893;53.130;8.158;2022-11-14T15:48:29;10.80;73.20
71188;DHT22;58893;53.130;8.158;2022-11-14T15:50:55;10.80;73.20
71188;DHT22;58893;53.130;8.158;2022-11-14T15:53:21;10.80;73.20
71188;DHT22;58893;53.130;8.158;2022-11-14T15:55:48;10.80;73.20
71188;DHT22;58893;53.130;8.158;2022-11-14T15:58:14;10.80;73.20
71188;DHT22;58893;53.130;8.158;2022-11-14T16:00:44;10.80;73.20
71188;DHT22;58893;53.130;8.158;2022-11-14T16:03:13;10.70;73.20
71188;DHT22;58893;53.130;8.158;2022-11-14T16:05:40;10.70;73.20
71188;DHT22;58893;53.130;8.158;2022-11-14T16:08:05;10.70;73.20
71188;DHT22;58893;53.130;8.158;2022-11-14T16:10:31;10.70;73.20
71188;DHT22;58893;53.130;8.158;2022-11-14T16:12:56;10.70;73.30
71188;DHT22;58893;53.130;8.158;2022-11-14T16:15:22;10.70;73.40
71188;DHT22;58893;53.130;8.158;2022-11-14T16:17:49;10.70;73.40
71188;DHT22;58893;53.130;8.158;2022-11-14T16:20:18;10.70;73.80
71188;DHT22;58893;53.130;8.158;2022-11-14T16:22:45;10.70;73.70
71188;DHT22;58893;53.130;8.158;2022-11-14T16:25:24;10.60;74.30
71188;DHT22;58893;53.130;8.158;2022-11-14T16:27:50;10.70;73.50
71188;DHT22;58893;53.130;8.158;2022-11-14T16:30:17;10.70;74.20
71188;DHT22;58893;53.130;8.158;2022-11-14T16:32:45;10.60;73.50
71188;DHT22;58893;53.130;8.158;2022-11-14T16:35:15;10.60;73.60
71188;DHT22;58893;53.130;8.158;2022-11-14T16:37:41;10.60;73.60
71188;DHT22;58893;53.130;8.158;2022-11-14T16:40:23;10.60;73.60
71188;DHT22;58893;53.130;8.158;2022-11-14T16:42:53;10.60;73.60
71188;DHT22;58893;53.130;8.158;2022-11-14T16:45:19;10.60;73.80
71188;DHT22;58893;53.130;8.158;2022-11-14T16:47:46;10.60;73.80
71188;DHT22;58893;53.130;8.158;2022-11-14T16:50:12;10.60;73.90
71188;DHT22;58893;53.130;8.158;2022-11-14T16:52:38;10.60;73.90
71188;DHT22;58893;53.130;8.158;2022-11-14T16:55:04;10.60;73.90
71188;DHT22;58893;53.130;8.158;2022-11-14T16:57:30;10.60;73.90
71188;DHT22;58893;53.130;8.158;2022-11-14T16:59:56;10.60;74.00
71188;DHT22;58893;53.130;8.158;2022-11-14T17:02:22;10.60;74.00
71188;DHT22;58893;53.130;8.158;2022-11-14T17:04:49;10.50;74.00
71188;DHT22;58893;53.130;8.158;2022-11-14T17:07:14;10.50;74.00
71188;DHT22;58893;53.130;8.158;2022-11-14T17:09:40;10.50;74.00
71188;DHT22;58893;53.130;8.158;2022-11-14T17:12:06;10.50;74.00
71188;DHT22;58893;53.130;8.158;2022-11-14T17:14:32;10.50;74.00
71188;DHT22;58893;53.130;8.158;2022-11-14T17:16:58;10.50;74.00
71188;DHT22;58893;53.130;8.158;2022-11-14T17:19:24;10.50;74.00
71188;DHT22;58893;53.130;8.158;2022-11-14T17:21:50;10.50;74.10
71188;DHT22;58893;53.130;8.158;2022-11-14T17:24:16;10.50;74.10
71188;DHT22;58893;53.130;8.158;2022-11-14T17:26:42;10.50;74.00
71188;DHT22;58893;53.130;8.158;2022-11-14T17:29:07;10.50;74.00
71188;DHT22;58893;53.130;8.158;2022-11-14T17:31:33;10.50;74.00
71188;DHT22;58893;53.130;8.158;2022-11-14T17:33:59;10.50;74.00
71188;DHT22;58893;53.130;8.158;2022-11-14T17:36:28;10.50;74.10
71188;DHT22;58893;53.130;8.158;2022-11-14T17:38:55;10.50;74.10
71188;DHT22;58893;53.130;8.158;2022-11-14T17:41:21;10.50;74.10
71188;DHT22;58893;53.130;8.158;2022-11-14T17:43:51;10.50;74.10
71188;DHT22;58893;53.130;8.158;2022-11-14T17:46:18;10.50;74.00
71188;DHT22;58893;53.130;8.158;2022-11-14T17:48:44;10.50;74.00
71188;DHT22;58893;53.130;8.158;2022-11-14T17:51:12;10.50;74.00
71188;DHT22;58893;53.130;8.158;2022-11-14T17:53:38;10.50;74.00
71188;DHT22;58893;53.130;8.158;2022-11-14T17:56:04;10.50;74.10